createdAt,value
2018-06-28T13:07:37.393Z,47.10
2018-06-28T13:10:14.378Z,46.90
2018-06-28T13:15:23.467Z,46.00
2018-06-28T13:17:59.306Z,45.40
2018-06-28T13:20:34.104Z,45.10
2018-06-28T13:23:08.865Z,44.90
2018-06-28T13:25:44.592Z,45.30
2018-06-28T13:28:19.383Z,45.00
2018-06-28T13:30:54.176Z,45.20
2018-06-28T13:33:29.545Z,44.90
2018-06-28T13:36:04.433Z,45.30
2018-06-28T13:38:39.257Z,44.80
2018-06-28T13:41:14.759Z,45.80
2018-06-28T13:43:49.574Z,46.70
2018-06-28T13:46:24.488Z,45.90
2018-06-28T13:49:28.302Z,46.20
2018-06-28T13:52:04.313Z,43.30
2018-06-28T13:54:39.124Z,42.20
2018-06-28T13:57:13.933Z,44.30
2018-06-28T13:59:49.068Z,45.00
2018-06-28T14:02:23.827Z,44.50
2018-06-28T14:07:33.022Z,43.40
2018-06-28T14:10:12.047Z,43.20
2018-06-28T14:12:47.368Z,42.70
2018-06-28T14:15:22.680Z,43.00
2018-06-28T14:18:07.241Z,43.40
2018-06-28T14:20:43.528Z,43.20
2018-06-28T14:23:19.267Z,43.70
2018-06-28T14:25:54.133Z,43.00
2018-06-28T14:28:29.130Z,41.90
2018-06-28T14:31:04.924Z,41.70
2018-06-28T14:33:41.490Z,43.00
2018-06-28T14:36:16.817Z,43.50
2018-06-28T14:39:18.610Z,44.30
2018-06-28T14:41:57.081Z,43.00
2018-06-28T14:44:35.425Z,43.90
2018-06-28T14:47:24.962Z,42.80
2018-06-28T14:50:08.251Z,43.40
2018-06-28T14:52:44.763Z,43.30
2018-06-28T14:55:26.978Z,44.20
2018-06-28T14:58:01.868Z,44.30
2018-06-28T15:00:47.125Z,44.70
2018-06-28T15:03:24.225Z,43.40
2018-06-28T15:06:00.028Z,44.30
2018-06-28T15:08:34.828Z,40.70
2018-06-28T15:11:10.663Z,40.40
2018-06-28T15:13:45.416Z,39.10
2018-06-28T15:16:21.197Z,39.30
2018-06-28T15:18:55.933Z,37.70
2018-06-28T15:21:30.710Z,39.50
2018-06-28T15:24:05.548Z,40.60
2018-06-28T15:26:40.338Z,40.00
2018-06-28T15:29:23.901Z,37.10
2018-06-28T15:31:58.679Z,39.10
2018-06-28T15:34:33.461Z,38.60
2018-06-28T15:37:09.280Z,37.50
2018-06-28T15:39:44.226Z,37.40
2018-06-28T15:42:26.953Z,37.00
2018-06-28T15:45:04.101Z,36.90
2018-06-28T15:47:40.980Z,37.20
2018-06-28T15:50:17.017Z,38.40
2018-06-28T15:52:53.067Z,40.00
2018-06-28T15:55:51.037Z,37.90
2018-06-28T15:58:37.793Z,38.50
2018-06-28T16:01:13.392Z,38.50
2018-06-28T16:03:50.149Z,39.40
2018-06-28T16:06:28.475Z,40.50
2018-06-28T16:09:11.251Z,39.70
2018-06-28T16:11:46.117Z,40.20
2018-06-28T16:14:21.948Z,39.60
2018-06-28T16:16:56.783Z,41.50
2018-06-28T16:19:32.502Z,42.80
2018-06-28T16:22:07.448Z,41.80
2018-06-28T16:24:43.244Z,41.40
2018-06-28T16:29:53.260Z,41.40
2018-06-28T16:32:28.064Z,43.30
2018-06-28T16:35:02.919Z,43.80
2018-06-28T16:37:37.816Z,44.80
2018-06-28T16:40:13.575Z,44.50
2018-06-28T16:42:48.329Z,44.60
2018-06-28T16:45:23.132Z,46.00
2018-06-28T16:47:58.027Z,48.20
2018-06-28T16:50:32.864Z,54.60
2018-06-28T16:53:07.644Z,55.80
2018-06-28T16:55:42.631Z,56.10
2018-06-28T16:58:17.486Z,55.20
2018-06-28T17:00:52.279Z,55.70
2018-06-28T17:03:27.071Z,58.40
2018-06-28T17:06:01.845Z,58.90
2018-06-28T17:08:36.624Z,59.00
2018-06-28T17:11:11.424Z,60.30
2018-06-28T17:13:46.211Z,60.10
2018-06-28T17:16:22.058Z,59.90
2018-06-28T17:21:31.313Z,61.40
2018-06-28T17:24:06.288Z,61.70
2018-06-28T17:26:41.120Z,61.90
2018-06-28T17:29:15.919Z,61.70
2018-06-28T17:31:50.969Z,62.20
2018-06-28T17:34:25.990Z,61.80
2018-06-28T17:37:00.840Z,61.90
2018-06-28T17:39:35.611Z,62.00
2018-06-28T17:44:45.731Z,62.00
2018-06-28T17:47:21.504Z,61.80
2018-06-28T17:49:56.308Z,62.10
2018-06-28T17:52:31.074Z,62.20
2018-06-28T17:57:44.786Z,63.50
2018-06-28T18:00:19.555Z,63.90
2018-06-28T18:05:29.614Z,65.00
2018-06-28T18:08:04.412Z,65.20
2018-06-28T18:10:39.219Z,65.30
2018-06-28T18:13:14.990Z,65.00
2018-06-28T18:15:49.709Z,65.00
2018-06-28T18:18:24.518Z,65.30
2018-06-28T18:21:00.287Z,65.50
2018-06-28T18:23:35.046Z,65.70
2018-06-28T18:26:09.840Z,65.80
2018-06-28T18:28:44.644Z,65.80
2018-06-28T18:34:05.402Z,66.90
2018-06-28T18:36:41.176Z,67.90
2018-06-28T18:39:15.992Z,69.00
2018-06-28T18:41:50.729Z,69.50
2018-06-28T18:44:28.095Z,70.00
2018-06-28T18:47:16.673Z,70.50
2018-06-28T18:49:53.831Z,70.90
2018-06-28T18:52:28.543Z,72.30
2018-06-28T18:55:03.335Z,72.20
2018-06-28T18:57:38.040Z,72.60
2018-06-28T19:02:48.264Z,73.90
2018-06-28T19:05:27.718Z,74.80
2018-06-28T19:08:03.636Z,76.00
2018-06-28T19:10:56.096Z,77.00
2018-06-28T19:13:33.119Z,78.30
2018-06-28T19:18:48.470Z,81.20
2018-06-28T19:22:26.199Z,83.40
2018-06-28T19:25:18.035Z,86.00
2018-06-28T19:27:52.990Z,89.40
2018-06-28T19:30:33.743Z,91.20
2018-06-28T19:33:08.491Z,92.60
2018-06-28T19:35:43.286Z,94.60
2018-06-28T19:38:18.060Z,96.40
2018-06-28T19:40:59.140Z,99.10
2018-06-28T19:43:49.902Z,99.30
2018-06-28T19:46:24.794Z,99.90
2018-06-28T19:48:59.571Z,99.90
2018-06-28T19:52:39.997Z,99.90
2018-06-28T19:55:23.284Z,99.90
2018-06-28T19:58:12.676Z,99.90
2018-06-28T20:00:52.701Z,99.90
2018-06-28T20:03:32.567Z,99.90
2018-06-28T20:06:07.439Z,99.90
2018-06-28T20:08:42.170Z,99.90
2018-06-28T20:13:56.432Z,99.90
2018-06-28T20:16:36.409Z,99.90
2018-06-28T20:19:17.160Z,99.90
2018-06-28T20:21:51.922Z,99.90
2018-06-28T20:24:26.655Z,99.90
2018-06-28T20:27:06.675Z,99.90
2018-06-28T20:29:46.587Z,99.90
2018-06-28T20:36:34.005Z,99.90
2018-06-28T20:39:10.739Z,99.90
2018-06-28T20:41:45.517Z,99.90
2018-06-28T20:44:20.309Z,99.90
2018-06-28T20:46:55.054Z,99.90
2018-06-28T20:49:29.995Z,99.90
2018-06-28T20:52:05.091Z,99.90
2018-06-28T20:54:40.873Z,99.90
2018-06-28T20:57:16.621Z,99.90
2018-06-28T20:59:51.315Z,99.90
2018-06-28T21:02:27.075Z,99.90
2018-06-28T21:05:02.764Z,99.90
2018-06-28T21:07:37.451Z,99.90
2018-06-28T21:10:12.267Z,99.90
2018-06-28T21:12:47.987Z,99.90
2018-06-28T21:15:22.889Z,99.90
2018-06-28T21:17:57.792Z,99.90
2018-06-28T21:20:48.721Z,99.90
2018-06-28T21:23:24.501Z,99.90
2018-06-28T21:32:31.302Z,99.90
2018-06-28T21:40:24.653Z,99.90
2018-06-28T21:45:52.452Z,99.90
2018-06-28T21:48:27.177Z,99.90
2018-06-28T21:51:02.761Z,99.90
2018-06-28T21:56:12.790Z,99.90
2018-06-28T21:58:47.500Z,99.90
2018-06-28T22:01:22.275Z,99.90
2018-06-28T22:03:56.984Z,99.90
2018-06-28T22:06:31.732Z,99.90
2018-06-28T22:11:41.724Z,99.90
2018-06-28T22:14:17.452Z,99.90
2018-06-28T22:16:53.402Z,99.90
2018-06-28T22:22:03.395Z,99.90
2018-06-28T22:24:39.096Z,99.90
2018-06-28T22:27:14.160Z,99.90
2018-06-28T22:29:48.340Z,99.90
2018-06-28T22:32:23.077Z,99.90
2018-06-28T22:34:57.810Z,99.90
2018-06-28T22:42:41.224Z,99.90
2018-06-28T22:45:16.290Z,99.90
2018-06-28T22:47:51.055Z,99.90
2018-06-28T22:50:26.845Z,99.90
2018-06-28T22:53:01.248Z,99.90
2018-06-28T22:55:35.423Z,99.90
2018-06-28T22:58:09.735Z,99.90
2018-06-28T23:00:43.896Z,99.90
2018-06-28T23:03:18.670Z,99.90
2018-06-28T23:05:52.804Z,99.90
2018-06-28T23:08:27.947Z,99.90
2018-06-28T23:11:02.080Z,99.90
2018-06-28T23:13:36.284Z,99.90
2018-06-28T23:18:44.418Z,99.90
2018-06-28T23:21:18.585Z,99.90
2018-06-28T23:23:52.763Z,99.90
2018-06-28T23:26:26.920Z,99.90
2018-06-28T23:29:01.098Z,99.90
2018-06-28T23:31:36.800Z,99.90
2018-06-28T23:34:12.534Z,99.90
2018-06-28T23:36:47.272Z,99.90
2018-06-28T23:39:22.058Z,99.90
2018-06-28T23:41:56.763Z,99.90
2018-06-28T23:44:31.513Z,99.90
2018-06-28T23:49:40.529Z,99.90
2018-06-28T23:52:15.696Z,99.90
2018-06-28T23:54:49.921Z,99.90
2018-06-28T23:57:24.624Z,99.90
2018-06-28T23:59:58.841Z,99.90
